Time;durP1;ratioP1;P1;durP2;ratioP2;P2;SDS_P1;SDS_P2;PMS_P1;PMS_P2;Temp;Humidity;BMP_temperature;BMP_pressure;BME280_temperature;BME280_humidity;BME280_pressure;Samples;Min_cycle;Max_cycle;Signal;HPM_P1;HPM_P2
2022/09/02 00:01:14;;;;;;;4.13;3.80;;;13.90;99.90;;;;;;5032758;28;20516;-49
2022/09/02 00:03:42;;;;;;;4.00;3.43;;;14.00;99.90;;;;;;5030529;28;20497;-49
2022/09/02 00:06:10;;;;;;;6.40;3.87;;;13.80;99.90;;;;;;5032262;28;20523;-49
2022/09/02 00:08:37;;;;;;;4.97;4.40;;;13.50;99.90;;;;;;5031946;28;20492;-50
2022/09/02 00:11:05;;;;;;;4.53;4.13;;;13.60;99.90;;;;;;5031440;28;20450;-51
2022/09/02 00:13:35;;;;;;;4.03;3.63;;;13.50;99.90;;;;;;5032330;28;20302;-49
2022/09/02 00:16:05;;;;;;;4.60;4.20;;;13.30;99.90;;;;;;5032164;28;20447;-49
2022/09/02 00:18:32;;;;;;;4.10;3.70;;;13.20;99.90;;;;;;5031659;28;20878;-49
2022/09/02 00:20:59;;;;;;;4.32;3.38;;;13.30;99.90;;;;;;5031180;28;20455;-49
2022/09/02 00:23:26;;;;;;;4.53;3.90;;;13.20;99.90;;;;;;5031834;28;20233;-50
2022/09/02 00:25:53;;;;;;;4.13;3.83;;;13.40;99.90;;;;;;5031746;28;20514;-48
2022/09/02 00:28:20;;;;;;;5.70;5.20;;;13.70;99.90;;;;;;5031796;28;20520;-50
2022/09/02 00:30:47;;;;;;;5.10;4.60;;;13.90;99.90;;;;;;5031049;28;20455;-52
2022/09/02 00:33:16;;;;;;;5.35;3.80;;;13.90;99.90;;;;;;5031539;28;20455;-51
2022/09/02 00:35:43;;;;;;;4.57;3.60;;;14.00;99.90;;;;;;5032161;28;20548;-49
2022/09/02 00:38:10;;;;;;;4.00;3.70;;;14.00;99.90;;;;;;5031507;28;20462;-49
2022/09/02 00:40:38;;;;;;;4.90;4.27;;;14.00;99.90;;;;;;5030733;28;20532;-50
2022/09/02 00:43:07;;;;;;;4.57;4.03;;;13.90;99.90;;;;;;5031720;28;20466;-49
2022/09/02 00:45:34;;;;;;;4.30;3.90;;;13.50;99.90;;;;;;5031478;28;20447;-49
2022/09/02 00:48:02;;;;;;;3.90;3.50;;;13.60;99.90;;;;;;5031588;28;20460;-50
2022/09/02 00:50:34;;;;;;;4.07;3.67;;;14.00;99.90;;;;;;5030648;28;20502;-52
2022/09/02 00:53:05;;;;;;;3.80;3.20;;;13.70;99.90;;;;;;5031120;28;20471;-51
2022/09/02 00:55:36;;;;;;;4.00;3.60;;;13.10;99.90;;;;;;5031143;28;20838;-49
2022/09/02 00:58:07;;;;;;;4.03;3.63;;;12.90;99.90;;;;;;5031200;28;20462;-49
2022/09/02 01:00:37;;;;;;;8.53;4.53;;;12.80;99.90;;;;;;5030413;28;20517;-49
2022/09/02 01:03:08;;;;;;;4.43;4.03;;;12.90;99.90;;;;;;5029807;28;20565;-48
2022/09/02 01:05:38;;;;;;;4.35;3.95;;;13.10;99.90;;;;;;5031071;28;20852;-50
2022/09/02 01:08:06;;;;;;;4.40;4.00;;;13.40;99.90;;;;;;5031101;28;20195;-51
2022/09/02 01:10:35;;;;;;;4.30;3.90;;;13.70;99.90;;;;;;5030124;28;20931;-47
2022/09/02 01:13:05;;;;;;;3.87;3.47;;;13.50;99.90;;;;;;5030768;28;20466;-48
2022/09/02 01:15:35;;;;;;;4.90;4.10;;;13.50;99.90;;;;;;5031510;28;20427;-47
2022/09/02 01:18:04;;;;;;;5.00;4.07;;;13.60;99.90;;;;;;5030232;28;20447;-47
2022/09/02 01:20:31;;;;;;;4.37;3.97;;;13.80;99.90;;;;;;5029999;28;20438;-47
2022/09/02 01:23:01;;;;;;;3.73;3.43;;;14.00;99.90;;;;;;5030550;28;20489;-48
2022/09/02 01:25:30;;;;;;;5.10;3.50;;;14.00;99.90;;;;;;5030729;28;20443;-48
2022/09/02 01:28:00;;;;;;;4.10;3.70;;;13.70;99.90;;;;;;5030685;28;20446;-49
2022/09/02 01:30:27;;;;;;;3.57;3.27;;;13.70;99.90;;;;;;5029734;28;20438;-48
2022/09/02 01:32:54;;;;;;;4.80;3.67;;;13.60;99.90;;;;;;5030679;28;20487;-49
2022/09/02 01:35:21;;;;;;;4.33;3.87;;;13.70;99.90;;;;;;5030653;28;20446;-47
2022/09/02 01:37:49;;;;;;;3.97;3.60;;;13.80;99.90;;;;;;5030355;28;20921;-47
2022/09/02 01:40:18;;;;;;;3.90;3.27;;;13.70;99.90;;;;;;5029630;28;20220;-47
2022/09/02 01:42:46;;;;;;;4.17;3.80;;;13.30;99.90;;;;;;5030295;28;20994;-47
2022/09/02 01:45:14;;;;;;;3.97;3.57;;;13.00;99.90;;;;;;5030508;28;20481;-47
2022/09/02 01:47:41;;;;;;;3.97;3.50;;;12.90;99.90;;;;;;5030333;28;20468;-48
2022/09/02 01:50:09;;;;;;;5.30;3.57;;;13.20;99.90;;;;;;5029421;28;20518;-47
2022/09/02 01:52:36;;;;;;;4.40;4.00;;;12.90;99.90;;;;;;5030346;28;20530;-47
2022/09/02 01:55:05;;;;;;;4.30;3.83;;;13.10;99.90;;;;;;5030130;28;20435;-47
2022/09/02 01:57:33;;;;;;;5.60;3.50;;;12.80;99.90;;;;;;5030170;28;20516;-46
2022/09/02 02:00:01;;;;;;;5.57;3.97;;;12.60;99.90;;;;;;5029131;28;20482;-48
2022/09/02 02:02:28;;;;;;;4.50;4.10;;;12.90;99.90;;;;;;5030092;28;20461;-47
2022/09/02 02:04:55;;;;;;;4.50;3.80;;;12.90;99.90;;;;;;5028058;28;20512;-48
2022/09/02 02:07:23;;;;;;;4.40;3.60;;;12.80;99.90;;;;;;5029932;28;20450;-48
2022/09/02 02:09:51;;;;;;;3.80;3.50;;;12.50;99.90;;;;;;5029512;28;20485;-47
2022/09/02 02:12:19;;;;;;;3.80;3.50;;;12.40;99.90;;;;;;5029909;28;20474;-48
2022/09/02 02:14:48;;;;;;;4.30;3.90;;;12.80;99.90;;;;;;5029988;28;20497;-48
2022/09/02 02:17:15;;;;;;;4.23;3.23;;;12.50;99.90;;;;;;5029938;28;20203;-48
2022/09/02 02:19:42;;;;;;;4.05;3.25;;;12.50;99.90;;;;;;5028491;28;20467;-47
2022/09/02 02:22:10;;;;;;;4.90;4.47;;;12.70;99.90;;;;;;5030043;28;20215;-47
2022/09/02 02:24:37;;;;;;;3.70;3.40;;;12.50;99.90;;;;;;5030296;28;20430;-48
2022/09/02 02:27:04;;;;;;;5.63;3.60;;;12.80;99.90;;;;;;5029770;28;20954;-48
2022/09/02 02:29:31;;;;;;;4.70;4.30;;;12.40;99.90;;;;;;5029227;28;20471;-48
2022/09/02 02:32:00;;;;;;;4.17;3.77;;;12.20;99.90;;;;;;5029665;28;20520;-47
2022/09/02 02:34:27;;;;;;;4.50;4.10;;;12.40;99.90;;;;;;5029600;28;20732;-47
2022/09/02 02:36:54;;;;;;;4.40;3.80;;;13.00;99.90;;;;;;5029787;28;20448;-47
2022/09/02 02:39:21;;;;;;;4.00;3.60;;;12.90;99.90;;;;;;5029193;28;21318;-47
2022/09/02 02:41:48;;;;;;;4.20;3.80;;;12.80;99.90;;;;;;5029565;28;20524;-48
2022/09/02 02:44:15;;;;;;;4.03;3.50;;;12.90;99.90;;;;;;5029798;28;20507;-47
2022/09/02 02:46:42;;;;;;;4.10;3.60;;;12.60;99.90;;;;;;5029640;28;20505;-47
2022/09/02 02:49:11;;;;;;;5.20;3.93;;;12.20;99.90;;;;;;5028902;28;20450;-47
2022/09/02 02:51:39;;;;;;;4.33;3.90;;;12.60;99.90;;;;;;5029531;28;20483;-47
2022/09/02 02:54:06;;;;;;;5.20;3.90;;;12.80;99.90;;;;;;5029433;28;20951;-47
2022/09/02 02:56:34;;;;;;;4.30;3.90;;;13.00;99.90;;;;;;5029613;28;20450;-47
2022/09/02 02:59:02;;;;;;;4.50;4.10;;;12.40;99.90;;;;;;5028774;28;20574;-47
2022/09/02 03:01:29;;;;;;;4.57;3.63;;;12.40;99.90;;;;;;5029122;28;20434;-49
2022/09/02 03:03:57;;;;;;;4.60;3.70;;;12.60;99.90;;;;;;5027735;28;20935;-47
2022/09/02 03:06:25;;;;;;;4.53;3.47;;;12.60;99.90;;;;;;5029476;28;20431;-47
2022/09/02 03:08:53;;;;;;;4.23;3.83;;;12.50;99.90;;;;;;5028797;28;20220;-47
2022/09/02 03:11:21;;;;;;;3.57;3.27;;;12.40;99.90;;;;;;5029287;28;20553;-47
2022/09/02 03:13:48;;;;;;;4.03;3.50;;;12.60;99.90;;;;;;5029482;28;20450;-47
2022/09/02 03:16:18;;;;;;;4.63;3.55;;;12.60;99.90;;;;;;5029472;28;20478;-47
2022/09/02 03:18:45;;;;;;;6.43;3.60;;;13.00;99.90;;;;;;5031939;28;20207;-47
2022/09/02 03:21:14;;;;;;;3.90;3.60;;;13.00;99.90;;;;;;5033063;28;20454;-48
2022/09/02 03:23:44;;;;;;;4.00;3.60;;;13.20;99.90;;;;;;5032583;28;20875;-47
2022/09/02 03:26:12;;;;;;;3.60;3.30;;;12.40;99.90;;;;;;5033117;28;20492;-46
2022/09/02 03:28:40;;;;;;;4.07;3.67;;;12.30;99.90;;;;;;5032989;28;20508;-47
2022/09/02 03:31:08;;;;;;;5.00;4.00;;;12.60;99.90;;;;;;5032412;28;20203;-48
2022/09/02 03:33:34;;;;;;;4.80;3.80;;;12.40;99.90;;;;;;5032721;28;20474;-48
2022/09/02 03:36:02;;;;;;;5.87;5.30;;;12.40;99.90;;;;;;5033068;28;20468;-47
2022/09/02 03:38:29;;;;;;;4.03;3.63;;;12.60;99.90;;;;;;5033249;28;20451;-48
2022/09/02 03:40:57;;;;;;;4.63;4.10;;;12.60;99.90;;;;;;5031929;28;20235;-47
2022/09/02 03:43:24;;;;;;;4.47;4.07;;;13.00;99.90;;;;;;5032365;28;20825;-47
2022/09/02 03:45:51;;;;;;;4.13;3.77;;;13.20;99.90;;;;;;5032726;28;20912;-49
2022/09/02 03:48:18;;;;;;;4.23;3.83;;;13.30;99.90;;;;;;5032704;28;20450;-48
2022/09/02 03:50:47;;;;;;;3.90;3.37;;;13.40;99.90;;;;;;5031938;28;20438;-48
2022/09/02 03:53:14;;;;;;;3.83;3.43;;;12.90;99.90;;;;;;5032355;28;20473;-48
2022/09/02 03:55:41;;;;;;;3.70;3.40;;;13.00;99.90;;;;;;5032526;28;20450;-47
2022/09/02 03:58:09;;;;;;;3.30;3.00;;;12.90;99.90;;;;;;5032560;28;20503;-47
2022/09/02 04:00:37;;;;;;;5.53;2.73;;;12.90;99.90;;;;;;5031395;28;20474;-49
2022/09/02 04:03:04;;;;;;;5.20;3.60;;;12.80;99.90;;;;;;5030545;28;20554;-47
2022/09/02 04:05:32;;;;;;;4.97;4.50;;;12.60;99.90;;;;;;5032562;28;20896;-48
2022/09/02 04:07:59;;;;;;;3.93;3.63;;;12.40;99.90;;;;;;5032251;28;20450;-46
2022/09/02 04:10:26;;;;;;;4.10;3.70;;;12.20;99.90;;;;;;5031446;28;20832;-47
2022/09/02 04:12:53;;;;;;;5.73;3.40;;;12.30;99.90;;;;;;5032254;28;20254;-48
2022/09/02 04:15:22;;;;;;;5.17;3.83;;;12.70;99.90;;;;;;5031867;28;20434;-48
2022/09/02 04:17:49;;;;;;;3.40;3.10;;;13.00;99.90;;;;;;5031227;28;20831;-47
2022/09/02 04:20:16;;;;;;;5.17;4.40;;;13.10;99.90;;;;;;5031211;28;20504;-47
2022/09/02 04:22:44;;;;;;;4.80;4.40;;;13.00;99.90;;;;;;5032987;28;20567;-48
2022/09/02 04:25:11;;;;;;;3.97;3.58;;;12.40;99.90;;;;;;5032050;28;20435;-49
2022/09/02 04:27:38;;;;;;;4.03;3.70;;;12.60;99.90;;;;;;5032187;28;20397;-48
2022/09/02 04:30:07;;;;;;;4.47;4.07;;;12.90;99.90;;;;;;5030364;28;21148;-47
2022/09/02 04:32:36;;;;;;;6.13;4.47;;;12.80;99.90;;;;;;5031874;28;21260;-50
2022/09/02 04:35:04;;;;;;;4.70;4.30;;;13.00;99.90;;;;;;5031720;28;20545;-48
2022/09/02 04:37:32;;;;;;;5.23;4.20;;;13.30;99.90;;;;;;5031626;28;20450;-48
2022/09/02 04:39:59;;;;;;;7.23;4.00;;;13.40;99.90;;;;;;5030671;28;20576;-47
2022/09/02 04:42:26;;;;;;;4.45;4.05;;;13.40;99.90;;;;;;5032055;28;20474;-49
2022/09/02 04:44:55;;;;;;;5.00;3.20;;;13.30;99.90;;;;;;5031433;28;20207;-48
2022/09/02 04:47:22;;;;;;;4.70;4.27;;;12.70;99.90;;;;;;5031384;28;20469;-48
2022/09/02 04:49:52;;;;;;;5.17;3.83;;;12.60;99.90;;;;;;5030835;28;20443;-48
2022/09/02 04:52:20;;;;;;;4.85;3.75;;;12.10;99.90;;;;;;5031372;28;20497;-48
2022/09/02 04:54:47;;;;;;;4.37;3.73;;;12.00;99.90;;;;;;5031356;28;20304;-49
2022/09/02 04:57:14;;;;;;;4.50;4.10;;;12.50;99.90;;;;;;5031194;28;20423;-49
2022/09/02 04:59:41;;;;;;;4.88;4.38;;;12.10;99.90;;;;;;5030519;28;20224;-49
2022/09/02 05:02:08;;;;;;;5.43;4.37;;;12.40;99.90;;;;;;5031025;28;20223;-50
2022/09/02 05:04:36;;;;;;;4.03;3.72;;;12.50;99.90;;;;;;5029701;28;20443;-49
2022/09/02 05:07:05;;;;;;;5.63;4.17;;;12.80;99.90;;;;;;5031635;28;20206;-49
2022/09/02 05:09:33;;;;;;;4.32;3.78;;;12.50;99.90;;;;;;5030402;28;20464;-49
2022/09/02 05:12:03;;;;;;;4.13;3.73;;;12.90;99.90;;;;;;5030847;28;20581;-49
2022/09/02 05:14:31;;;;;;;4.53;4.13;;;13.20;99.90;;;;;;5031264;28;20457;-50
2022/09/02 05:16:59;;;;;;;7.40;4.03;;;13.30;99.90;;;;;;5030794;28;21014;-50
2022/09/02 05:19:26;;;;;;;6.70;5.10;;;13.30;99.90;;;;;;5029969;28;20839;-50
2022/09/02 05:21:57;;;;;;;5.63;4.50;;;13.40;99.90;;;;;;5030526;28;20481;-50
2022/09/02 05:24:27;;;;;;;4.80;4.37;;;13.00;99.90;;;;;;5031381;28;20481;-48
2022/09/02 05:26:54;;;;;;;5.50;3.90;;;12.70;99.90;;;;;;5030797;28;20543;-49
2022/09/02 05:29:22;;;;;;;4.97;4.50;;;12.70;99.90;;;;;;5030047;28;20204;-49
2022/09/02 05:31:49;;;;;;;4.93;4.30;;;12.70;99.90;;;;;;5030974;28;20474;-48
2022/09/02 05:34:17;;;;;;;5.67;4.40;;;12.70;99.90;;;;;;5030751;28;20500;-49
2022/09/02 05:36:45;;;;;;;5.50;4.90;;;13.00;99.90;;;;;;5030464;28;20461;-50
2022/09/02 05:39:12;;;;;;;6.63;4.67;;;12.90;99.90;;;;;;5029826;28;20454;-50
2022/09/02 05:41:40;;;;;;;7.53;5.60;;;12.90;99.90;;;;;;5029343;28;20474;-50
2022/09/02 05:44:07;;;;;;;6.67;5.23;;;13.10;99.90;;;;;;5030840;28;20442;-50
2022/09/02 05:46:36;;;;;;;6.20;4.77;;;13.20;99.90;;;;;;5030459;28;20454;-48
2022/09/02 05:49:07;;;;;;;5.80;4.38;;;13.30;99.90;;;;;;5029816;28;20635;-50
2022/09/02 05:51:41;;;;;;;6.23;5.63;;;13.50;99.90;;;;;;5030860;28;20200;-49
2022/09/02 05:54:10;;;;;;;6.20;4.57;;;13.50;99.90;;;;;;5030407;28;20454;-50
2022/09/02 05:56:41;;;;;;;4.80;4.30;;;13.50;99.90;;;;;;5030408;28;20473;-49
2022/09/02 05:59:09;;;;;;;8.50;4.83;;;13.50;99.90;;;;;;5029805;28;20450;-49
2022/09/02 06:01:36;;;;;;;5.43;4.93;;;13.40;99.90;;;;;;5029797;28;20632;-50
2022/09/02 06:04:04;;;;;;;5.83;4.60;;;13.30;99.90;;;;;;5029233;28;20454;-49
2022/09/02 06:06:32;;;;;;;7.37;4.70;;;13.40;99.90;;;;;;5030469;28;20446;-49
2022/09/02 06:08:59;;;;;;;4.40;3.60;;;13.30;99.90;;;;;;5029257;28;20431;-50
2022/09/02 06:11:27;;;;;;;8.98;4.20;;;13.20;99.90;;;;;;5030122;28;20450;-49
2022/09/02 06:13:56;;;;;;;5.90;3.77;;;13.10;99.90;;;;;;5030252;28;20203;-49
2022/09/02 06:16:23;;;;;;;5.53;4.30;;;13.50;99.90;;;;;;5029922;28;20522;-51
2022/09/02 06:18:51;;;;;;;4.93;3.83;;;13.40;99.90;;;;;;5028727;28;20946;-49
2022/09/02 06:21:19;;;;;;;4.27;3.70;;;13.10;99.90;;;;;;5029809;28;20481;-50
2022/09/02 06:23:47;;;;;;;3.97;3.67;;;13.30;99.90;;;;;;5029926;28;20459;-48
2022/09/02 06:26:15;;;;;;;3.50;3.20;;;13.40;99.90;;;;;;5029717;28;20199;-50
2022/09/02 06:28:43;;;;;;;3.80;3.40;;;13.40;99.90;;;;;;5029273;28;20438;-49
2022/09/02 06:31:14;;;;;;;3.70;3.40;;;13.30;99.90;;;;;;5029730;28;20438;-51
2022/09/02 06:33:42;;;;;;;4.35;3.92;;;13.10;99.90;;;;;;5029884;28;21022;-49
2022/09/02 06:36:11;;;;;;;5.50;5.00;;;12.80;99.90;;;;;;5029888;28;20661;-50
2022/09/02 06:38:42;;;;;;;5.85;4.00;;;12.80;99.90;;;;;;5029867;28;20196;-49
2022/09/02 06:41:11;;;;;;;4.80;4.40;;;12.40;99.90;;;;;;5029779;28;20321;-48
2022/09/02 06:43:38;;;;;;;4.30;3.90;;;12.40;99.90;;;;;;5029769;28;20473;-49
2022/09/02 06:46:06;;;;;;;4.28;3.88;;;12.70;99.90;;;;;;5029782;28;20998;-50
2022/09/02 06:48:34;;;;;;;16.27;5.73;;;12.70;99.90;;;;;;5029744;28;20245;-49
2022/09/02 06:51:01;;;;;;;3.90;3.45;;;12.50;99.90;;;;;;5029187;28;21010;-49
2022/09/02 06:53:28;;;;;;;4.43;3.90;;;12.50;99.90;;;;;;5033799;28;20227;-50
2022/09/02 06:55:55;;;;;;;4.33;3.30;;;12.50;99.90;;;;;;5033767;28;20430;-50
2022/09/02 06:58:22;;;;;;;2.87;2.57;;;12.60;99.90;;;;;;5033723;28;20476;-51
2022/09/02 07:00:49;;;;;;;3.63;3.27;;;12.70;99.90;;;;;;5032964;28;20470;-51
2022/09/02 07:06:09;;;;;;;3.70;3.33;;;13.00;99.90;;;;;;5033460;28;20429;-47
2022/09/02 07:08:37;;;;;;;3.53;3.20;;;13.00;99.90;;;;;;5033510;28;20288;-48
2022/09/02 07:11:05;;;;;;;3.83;3.43;;;13.10;99.90;;;;;;5032668;28;20477;-48
2022/09/02 07:13:32;;;;;;;8.33;4.30;;;13.00;99.90;;;;;;5033469;28;21202;-49
2022/09/02 07:15:59;;;;;;;3.53;3.20;;;13.10;99.90;;;;;;5033136;28;20881;-49
2022/09/02 07:18:27;;;;;;;3.93;3.63;;;13.20;99.90;;;;;;5032878;28;20435;-47
2022/09/02 07:20:55;;;;;;;3.27;2.97;;;13.40;99.90;;;;;;5032269;28;20462;-48
2022/09/02 07:23:23;;;;;;;2.85;2.40;;;13.40;99.90;;;;;;5033066;28;20891;-49
2022/09/02 07:25:50;;;;;;;8.20;3.25;;;13.80;99.90;;;;;;5033009;28;20209;-48
2022/09/02 07:28:17;;;;;;;4.60;3.10;;;14.10;99.90;;;;;;5032915;28;20752;-49
2022/09/02 07:30:45;;;;;;;2.90;2.70;;;14.20;99.90;;;;;;5032415;28;20473;-49
2022/09/02 07:33:13;;;;;;;3.33;2.77;;;13.90;99.90;;;;;;5032678;28;20461;-49
2022/09/02 07:35:41;;;;;;;5.27;3.20;;;14.10;99.90;;;;;;5033122;28;20501;-49
2022/09/02 07:38:09;;;;;;;3.47;3.10;;;13.90;99.90;;;;;;5032702;28;20466;-48
2022/09/02 07:40:38;;;;;;;9.23;4.50;;;13.70;99.90;;;;;;5032304;28;20470;-49
2022/09/02 07:43:07;;;;;;;4.20;3.80;;;13.90;99.90;;;;;;5032711;28;20498;-48
2022/09/02 07:45:36;;;;;;;6.07;3.30;;;13.80;99.90;;;;;;5032732;28;20439;-49
2022/09/02 07:48:06;;;;;;;6.80;5.30;;;13.60;99.90;;;;;;5032538;28;20445;-48
2022/09/02 07:50:34;;;;;;;5.60;3.43;;;13.60;99.90;;;;;;5031687;28;20440;-49
2022/09/02 07:53:06;;;;;;;6.63;3.77;;;13.80;99.90;;;;;;5032628;28;20521;-48
2022/09/02 07:55:34;;;;;;;9.90;4.30;;;13.90;99.90;;;;;;5032606;28;20441;-48
2022/09/02 07:58:04;;;;;;;10.80;4.83;;;13.70;99.90;;;;;;5032707;28;20446;-48
2022/09/02 08:00:31;;;;;;;13.03;5.33;;;13.90;99.90;;;;;;5031827;28;20474;-48
2022/09/02 08:02:59;;;;;;;6.17;4.73;;;14.00;99.90;;;;;;5030404;28;20952;-49
2022/09/02 08:05:26;;;;;;;12.03;7.17;;;14.00;99.90;;;;;;5032388;28;20461;-51
2022/09/02 08:07:53;;;;;;;7.73;5.73;;;14.10;99.90;;;;;;5032702;28;20450;-48
2022/09/02 08:10:22;;;;;;;10.50;6.47;;;14.40;99.90;;;;;;5031579;28;20520;-50
2022/09/02 08:12:50;;;;;;;27.00;10.20;;;14.60;99.90;;;;;;5027870;28;20455;-50
2022/09/02 08:15:19;;;;;;;15.00;6.27;;;14.70;99.90;;;;;;5032314;28;20450;-50
2022/09/02 08:17:47;;;;;;;4.30;3.90;;;15.10;99.90;;;;;;5031915;28;20935;-50
2022/09/02 08:20:16;;;;;;;4.80;4.10;;;15.20;99.90;;;;;;5031070;28;20868;-51
2022/09/02 08:22:43;;;;;;;3.73;3.43;;;15.00;99.90;;;;;;5030000;28;21026;-49
2022/09/02 08:25:11;;;;;;;4.07;3.63;;;14.90;99.90;;;;;;5031238;28;20453;-50
2022/09/02 08:27:38;;;;;;;5.53;4.57;;;14.90;99.90;;;;;;5031806;28;20908;-49
2022/09/02 08:30:08;;;;;;;5.80;3.87;;;15.10;99.90;;;;;;5030401;28;20437;-50
2022/09/02 08:32:37;;;;;;;12.23;4.00;;;15.10;99.90;;;;;;5030148;28;20462;-51
2022/09/02 08:35:05;;;;;;;4.67;4.17;;;15.10;99.90;;;;;;5030795;28;20814;-51
2022/09/02 08:37:34;;;;;;;4.43;3.90;;;15.00;99.90;;;;;;5030543;28;20439;-50
2022/09/02 08:40:03;;;;;;;5.47;3.93;;;15.20;99.90;;;;;;5030936;28;20929;-49
2022/09/02 08:42:33;;;;;;;3.77;3.47;;;15.30;99.90;;;;;;5030707;28;20543;-51
2022/09/02 08:45:11;;;;;;;2.85;2.65;;;15.40;99.90;;;;;;5031398;28;20507;-50
2022/09/02 08:47:42;;;;;;;5.07;2.77;;;15.40;99.90;;;;;;5031695;28;20649;-50
2022/09/02 08:50:13;;;;;;;3.63;3.33;;;15.50;99.90;;;;;;5031104;28;20462;-50
2022/09/02 08:52:46;;;;;;;3.90;3.30;;;15.50;99.90;;;;;;5031805;28;20462;-51
2022/09/02 08:55:19;;;;;;;2.90;2.57;;;15.40;99.90;;;;;;5031463;28;20470;-49
2022/09/02 08:57:48;;;;;;;4.25;3.00;;;15.60;99.90;;;;;;5031372;28;20834;-50
2022/09/02 09:00:16;;;;;;;3.33;2.70;;;15.80;99.90;;;;;;5030237;28;20213;-50
2022/09/02 09:02:59;;;;;;;6.67;3.87;;;15.80;99.90;;;;;;5030312;28;20505;-49
2022/09/02 09:05:38;;;;;;;3.40;2.83;;;16.10;99.90;;;;;;5031045;28;20512;-49
2022/09/02 09:08:15;;;;;;;3.47;3.17;;;16.10;99.90;;;;;;5031022;28;20476;-50
2022/09/02 09:10:55;;;;;;;7.33;4.83;;;16.20;99.90;;;;;;5030538;28;20210;-51
2022/09/02 09:14:01;;;;;;;3.63;3.33;;;16.40;99.90;;;;;;5031014;28;20541;-50
2022/09/02 09:16:38;;;;;;;3.67;3.30;;;16.50;99.90;;;;;;5031030;28;20461;-50
2022/09/02 09:19:12;;;;;;;4.30;3.20;;;16.40;99.90;;;;;;5029857;28;20500;-50
2022/09/02 09:21:40;;;;;;;5.23;3.70;;;16.60;99.90;;;;;;5030148;28;20474;-49
2022/09/02 09:24:21;;;;;;;3.90;3.50;;;16.70;99.90;;;;;;5030647;28;20485;-51
2022/09/02 09:26:48;;;;;;;4.23;3.60;;;16.70;99.90;;;;;;5030325;28;20794;-50
2022/09/02 09:29:15;;;;;;;3.17;2.87;;;16.90;99.90;;;;;;5030358;28;20466;-49
2022/09/02 09:31:44;;;;;;;3.53;3.23;;;16.70;99.90;;;;;;5030689;28;21038;-50
2022/09/02 09:34:13;;;;;;;7.63;3.97;;;16.80;99.90;;;;;;5030635;28;20443;-49
2022/09/02 09:36:52;;;;;;;9.30;5.03;;;17.40;99.90;;;;;;5030655;28;20519;-50
2022/09/02 09:39:23;;;;;;;6.20;5.40;;;17.40;99.90;;;;;;5029700;28;20434;-50
2022/09/02 09:41:51;;;;;;;4.87;4.37;;;17.70;99.90;;;;;;5030636;28;20482;-50
2022/09/02 09:44:43;;;;;;;4.90;4.40;;;17.70;99.90;;;;;;5030560;28;20438;-49
2022/09/02 09:47:18;;;;;;;6.40;4.07;;;17.50;99.90;;;;;;5030324;28;20816;-50
2022/09/02 09:49:47;;;;;;;4.83;3.70;;;17.50;99.90;;;;;;5029762;28;20418;-50
2022/09/02 09:52:26;;;;;;;4.57;4.17;;;17.70;99.90;;;;;;5030301;28;20471;-50
2022/09/02 09:55:13;;;;;;;5.10;3.77;;;17.80;99.90;;;;;;5030274;28;20446;-50
2022/09/02 09:57:41;;;;;;;4.43;4.03;;;18.00;99.90;;;;;;5030241;28;20478;-49
2022/09/02 10:00:16;;;;;;;4.07;3.30;;;18.00;99.90;;;;;;5029585;28;20446;-49
2022/09/02 10:02:48;;;;;;;5.35;4.47;;;17.50;99.90;;;;;;5029096;28;20528;-50
2022/09/02 10:05:32;;;;;;;4.97;3.60;;;18.00;99.90;;;;;;5030598;28;20631;-49
2022/09/02 10:08:01;;;;;;;4.57;3.77;;;18.10;99.90;;;;;;5031183;28;20780;-50
2022/09/02 10:10:30;;;;;;;4.77;4.17;;;18.20;99.90;;;;;;5029880;28;20528;-49
2022/09/02 10:13:01;;;;;;;4.85;3.60;;;18.50;99.90;;;;;;5029008;28;20562;-51
2022/09/02 10:15:41;;;;;;;3.63;3.33;;;18.70;99.90;;;;;;5029419;28;20695;-50
2022/09/02 10:18:21;;;;;;;5.03;4.53;;;18.70;99.90;;;;;;5029251;28;20551;-50
2022/09/02 10:21:00;;;;;;;4.90;4.50;;;18.80;99.90;;;;;;5028568;28;20450;-49
2022/09/02 10:23:36;;;;;;;5.00;3.70;;;19.00;99.90;;;;;;5030987;28;20478;-50
2022/09/02 10:26:15;;;;;;;4.90;3.63;;;18.90;99.90;;;;;;5029129;28;20438;-50
2022/09/02 10:29:07;;;;;;;4.70;4.00;;;18.90;99.90;;;;;;5029781;28;20821;-51
2022/09/02 10:31:45;;;;;;;4.10;3.70;;;19.00;99.90;;;;;;5029712;28;20465;-49
2022/09/02 10:34:20;;;;;;;5.27;3.97;;;19.10;99.90;;;;;;5029692;28;20446;-50
2022/09/02 10:37:07;;;;;;;4.70;4.30;;;19.30;99.90;;;;;;5029534;28;20446;-51
2022/09/02 10:40:07;;;;;;;4.57;4.05;;;19.30;99.90;;;;;;5027398;28;20456;-49
2022/09/02 10:42:44;;;;;;;3.67;3.33;;;19.80;99.90;;;;;;5027422;28;20450;-50
2022/09/02 10:45:16;;;;;;;3.50;3.20;;;19.80;99.90;;;;;;5027787;28;20484;-50
2022/09/02 10:47:49;;;;;;;3.50;3.20;;;19.60;99.90;;;;;;5026206;28;20485;-51
2022/09/02 10:50:22;;;;;;;4.03;3.03;;;19.70;99.90;;;;;;5027592;28;20430;-51
2022/09/02 10:53:22;;;;;;;3.77;3.47;;;19.90;99.90;;;;;;5028244;28;20462;-49
2022/09/02 10:55:57;;;;;;;6.13;2.50;;;20.00;99.90;;;;;;5022852;28;20544;-49
2022/09/02 10:58:34;;;;;;;2.73;2.40;;;19.80;99.90;;;;;;5026084;28;20191;-49
2022/09/02 11:01:01;;;;;;;4.30;2.40;;;20.00;99.90;;;;;;5028867;28;20449;-49
2022/09/02 11:03:33;;;;;;;2.90;2.50;;;20.00;99.90;;;;;;5028355;28;21009;-49
2022/09/02 11:06:05;;;;;;;2.95;2.42;;;20.20;99.90;;;;;;5029336;28;20500;-50
2022/09/02 11:08:39;;;;;;;3.50;3.10;;;20.30;99.90;;;;;;5029072;28;20739;-49
2022/09/02 11:11:12;;;;;;;3.70;3.40;;;20.20;99.90;;;;;;5028332;28;20438;-49
2022/09/02 11:13:50;;;;;;;3.50;3.20;;;20.30;99.90;;;;;;5029194;28;20219;-48
2022/09/02 11:16:23;;;;;;;2.93;2.67;;;20.00;99.90;;;;;;5028836;28;20456;-50
2022/09/02 11:18:59;;;;;;;3.10;2.80;;;20.40;99.90;;;;;;5028138;28;20948;-50
2022/09/02 11:21:42;;;;;;;3.97;3.67;;;20.30;99.90;;;;;;5028959;28;20824;-50
2022/09/02 11:24:14;;;;;;;3.20;2.90;;;20.40;99.90;;;;;;5029076;28;20434;-50
2022/09/02 11:26:56;;;;;;;3.47;3.17;;;20.50;99.90;;;;;;5029048;28;20460;-49
2022/09/02 11:29:35;;;;;;;3.30;3.00;;;20.40;99.90;;;;;;5028573;28;20434;-51
2022/09/02 11:32:10;;;;;;;4.13;3.13;;;20.50;99.90;;;;;;5028960;28;20526;-47
2022/09/02 11:34:43;;;;;;;2.60;2.40;;;20.50;99.90;;;;;;5029298;28;20445;-49
2022/09/02 11:37:14;;;;;;;4.20;3.80;;;20.70;99.90;;;;;;5029143;28;20641;-49
2022/09/02 11:39:44;;;;;;;3.30;3.00;;;20.60;99.90;;;;;;5030551;28;20434;-51
2022/09/02 11:42:27;;;;;;;3.60;3.30;;;20.60;99.90;;;;;;5032330;28;20478;-49
2022/09/02 11:45:17;;;;;;;3.40;3.10;;;20.70;99.90;;;;;;5032760;28;20481;-49
2022/09/02 11:48:28;;;;;;;3.20;2.90;;;20.70;99.90;;;;;;5031923;28;20451;-49
2022/09/02 11:51:43;;;;;;;3.00;2.70;;;20.70;99.90;;;;;;5031079;28;20427;-50
2022/09/02 11:54:14;;;;;;;3.40;3.10;;;20.90;99.90;;;;;;5029404;28;21228;-50
2022/09/02 11:56:44;;;;;;;2.90;2.63;;;21.00;99.90;;;;;;5031904;28;20841;-50
2022/09/02 11:59:22;;;;;;;3.00;2.80;;;21.00;99.90;;;;;;5031609;28;20446;-49
2022/09/02 12:01:53;;;;;;;3.37;3.07;;;20.80;99.90;;;;;;5031054;28;20971;-50
2022/09/02 12:04:25;;;;;;;3.60;3.30;;;21.20;99.90;;;;;;5031263;28;20446;-50
2022/09/02 12:07:24;;;;;;;3.17;2.97;;;21.20;99.90;;;;;;5032147;28;20542;-49
2022/09/02 12:09:53;;;;;;;3.60;3.30;;;21.20;99.90;;;;;;5031764;28;20203;-50
2022/09/02 12:12:59;;;;;;;3.60;3.30;;;20.90;99.90;;;;;;5031804;28;20466;-50
2022/09/02 12:15:27;;;;;;;3.30;3.00;;;20.90;99.90;;;;;;5031189;28;20450;-51
2022/09/02 12:18:29;;;;;;;3.60;3.30;;;21.00;99.90;;;;;;5031421;28;20813;-51
2022/09/02 12:21:07;;;;;;;4.23;2.90;;;21.30;99.90;;;;;;5031141;28;20452;-50
2022/09/02 12:24:17;;;;;;;3.80;3.03;;;21.30;99.90;;;;;;5031619;28;20790;-50
2022/09/02 12:27:23;;;;;;;3.27;2.97;;;21.30;99.90;;;;;;5032022;28;20461;-50
2022/09/02 12:29:51;;;;;;;3.07;2.50;;;21.30;99.90;;;;;;5031140;28;20438;-49
2022/09/02 12:33:01;;;;;;;2.53;2.33;;;21.50;99.90;;;;;;5031152;28;20493;-49
2022/09/02 12:35:57;;;;;;;3.27;2.97;;;21.40;99.90;;;;;;5032057;28;20452;-49
2022/09/02 12:38:29;;;;;;;3.63;2.63;;;21.60;99.90;;;;;;5031112;28;20533;-49
2022/09/02 12:41:24;;;;;;;3.00;2.73;;;21.70;99.90;;;;;;5030948;28;20489;-50
2022/09/02 12:44:12;;;;;;;6.40;2.63;;;21.80;99.90;;;;;;5030546;28;20486;-49
2022/09/02 12:46:56;;;;;;;3.23;2.93;;;21.80;99.90;;;;;;5030716;28;20446;-50
2022/09/02 12:49:35;;;;;;;3.17;2.87;;;21.70;99.90;;;;;;5030728;28;20912;-50
2022/09/02 12:52:05;;;;;;;3.50;3.20;;;21.80;99.90;;;;;;5031775;28;20716;-49
2022/09/02 12:54:41;;;;;;;3.90;3.50;;;21.70;99.90;;;;;;5031447;28;20450;-51
2022/09/02 12:57:09;;;;;;;3.77;3.47;;;21.90;99.90;;;;;;5034658;28;20472;-49
2022/09/02 12:59:38;;;;;;;3.50;3.00;;;21.70;99.90;;;;;;5031978;28;20496;-49
2022/09/02 13:02:31;;;;;;;2.77;2.57;;;21.90;99.90;;;;;;5030640;28;20600;-50
2022/09/02 13:05:14;;;;;;;7.27;3.20;;;21.90;99.90;;;;;;5029821;28;20454;-50
2022/09/02 13:08:18;;;;;;;4.10;3.30;;;22.00;99.90;;;;;;5030341;28;20441;-50
2022/09/02 13:11:19;;;;;;;5.13;3.70;;;22.00;99.90;;;;;;5030680;28;20458;-50